sensor_id;sensor_type;location;lat;lon;timestamp;P1;durP1;ratioP1;P2;durP2;ratioP2
2558;SDS011;1289;53.488;10.006;2023-01-04T00:02:03;5.80;;;5.03;;
2558;SDS011;1289;53.488;10.006;2023-01-04T00:04:30;4.70;;;4.20;;
2558;SDS011;1289;53.488;10.006;2023-01-04T00:06:56;7.00;;;4.47;;
2558;SDS011;1289;53.488;10.006;2023-01-04T00:09:23;4.73;;;4.33;;
2558;SDS011;1289;53.488;10.006;2023-01-04T00:11:51;5.30;;;4.67;;
2558;SDS011;1289;53.488;10.006;2023-01-04T00:14:17;5.40;;;4.90;;
2558;SDS011;1289;53.488;10.006;2023-01-04T00:16:44;5.80;;;4.50;;
2558;SDS011;1289;53.488;10.006;2023-01-04T00:19:11;6.23;;;4.30;;
2558;SDS011;1289;53.488;10.006;2023-01-04T00:21:38;5.43;;;4.37;;
2558;SDS011;1289;53.488;10.006;2023-01-04T00:24:04;5.50;;;4.17;;
2558;SDS011;1289;53.488;10.006;2023-01-04T00:26:33;4.87;;;4.17;;
2558;SDS011;1289;53.488;10.006;2023-01-04T00:29:02;4.07;;;3.77;;
2558;SDS011;1289;53.488;10.006;2023-01-04T00:31:30;5.13;;;4.03;;
2558;SDS011;1289;53.488;10.006;2023-01-04T00:33:58;4.40;;;3.70;;
2558;SDS011;1289;53.488;10.006;2023-01-04T00:36:25;6.40;;;4.10;;
2558;SDS011;1289;53.488;10.006;2023-01-04T00:38:52;4.33;;;3.97;;
2558;SDS011;1289;53.488;10.006;2023-01-04T00:41:32;5.10;;;4.67;;
2558;SDS011;1289;53.488;10.006;2023-01-04T00:44:01;4.97;;;4.50;;
2558;SDS011;1289;53.488;10.006;2023-01-04T00:46:28;4.70;;;4.37;;
2558;SDS011;1289;53.488;10.006;2023-01-04T00:48:55;5.13;;;4.57;;
2558;SDS011;1289;53.488;10.006;2023-01-04T00:51:22;5.57;;;4.20;;
2558;SDS011;1289;53.488;10.006;2023-01-04T00:53:48;6.87;;;4.17;;
2558;SDS011;1289;53.488;10.006;2023-01-04T00:56:15;4.43;;;4.03;;
2558;SDS011;1289;53.488;10.006;2023-01-04T00:58:41;4.70;;;4.30;;
2558;SDS011;1289;53.488;10.006;2023-01-04T01:01:09;5.70;;;4.30;;
2558;SDS011;1289;53.488;10.006;2023-01-04T01:03:36;4.27;;;3.90;;
2558;SDS011;1289;53.488;10.006;2023-01-04T01:06:04;4.00;;;3.60;;
2558;SDS011;1289;53.488;10.006;2023-01-04T01:08:32;4.57;;;3.87;;
2558;SDS011;1289;53.488;10.006;2023-01-04T01:11:01;4.50;;;4.10;;
2558;SDS011;1289;53.488;10.006;2023-01-04T01:13:29;6.60;;;3.80;;
2558;SDS011;1289;53.488;10.006;2023-01-04T01:15:55;5.57;;;4.20;;
2558;SDS011;1289;53.488;10.006;2023-01-04T01:18:23;5.13;;;4.10;;
2558;SDS011;1289;53.488;10.006;2023-01-04T01:20:50;5.07;;;4.57;;
2558;SDS011;1289;53.488;10.006;2023-01-04T01:23:16;5.20;;;4.17;;
2558;SDS011;1289;53.488;10.006;2023-01-04T01:25:43;4.33;;;4.00;;
2558;SDS011;1289;53.488;10.006;2023-01-04T01:28:09;4.73;;;3.90;;
2558;SDS011;1289;53.488;10.006;2023-01-04T01:30:38;3.77;;;3.57;;
2558;SDS011;1289;53.488;10.006;2023-01-04T01:33:05;4.30;;;3.90;;
2558;SDS011;1289;53.488;10.006;2023-01-04T01:35:33;5.03;;;3.30;;
2558;SDS011;1289;53.488;10.006;2023-01-04T01:38:00;5.10;;;3.40;;
2558;SDS011;1289;53.488;10.006;2023-01-04T01:40:27;4.87;;;3.57;;
2558;SDS011;1289;53.488;10.006;2023-01-04T01:42:54;4.60;;;4.20;;
2558;SDS011;1289;53.488;10.006;2023-01-04T01:45:24;3.70;;;3.40;;
2558;SDS011;1289;53.488;10.006;2023-01-04T01:47:55;4.47;;;4.17;;
2558;SDS011;1289;53.488;10.006;2023-01-04T01:50:25;4.17;;;3.70;;
2558;SDS011;1289;53.488;10.006;2023-01-04T01:52:55;11.33;;;4.10;;
2558;SDS011;1289;53.488;10.006;2023-01-04T01:55:24;6.23;;;3.80;;
2558;SDS011;1289;53.488;10.006;2023-01-04T01:57:51;3.60;;;3.37;;
2558;SDS011;1289;53.488;10.006;2023-01-04T02:00:18;3.80;;;3.50;;
2558;SDS011;1289;53.488;10.006;2023-01-04T02:02:48;4.50;;;3.70;;
2558;SDS011;1289;53.488;10.006;2023-01-04T02:05:17;6.10;;;3.47;;
2558;SDS011;1289;53.488;10.006;2023-01-04T02:07:44;4.97;;;3.17;;
2558;SDS011;1289;53.488;10.006;2023-01-04T02:10:13;4.93;;;4.37;;
2558;SDS011;1289;53.488;10.006;2023-01-04T02:12:40;3.90;;;3.60;;
2558;SDS011;1289;53.488;10.006;2023-01-04T02:15:07;3.90;;;3.60;;
2558;SDS011;1289;53.488;10.006;2023-01-04T02:17:35;4.17;;;3.87;;
2558;SDS011;1289;53.488;10.006;2023-01-04T02:20:22;5.53;;;3.30;;
2558;SDS011;1289;53.488;10.006;2023-01-04T02:26:00;4.23;;;3.20;;
2558;SDS011;1289;53.488;10.006;2023-01-04T02:28:55;3.93;;;3.60;;
2558;SDS011;1289;53.488;10.006;2023-01-04T02:31:32;4.43;;;3.97;;
2558;SDS011;1289;53.488;10.006;2023-01-04T02:34:03;4.97;;;3.80;;
2558;SDS011;1289;53.488;10.006;2023-01-04T02:36:32;3.57;;;3.27;;
2558;SDS011;1289;53.488;10.006;2023-01-04T02:39:04;5.80;;;3.90;;
2558;SDS011;1289;53.488;10.006;2023-01-04T02:41:39;4.80;;;4.33;;
2558;SDS011;1289;53.488;10.006;2023-01-04T02:44:10;3.87;;;3.57;;
2558;SDS011;1289;53.488;10.006;2023-01-04T02:46:59;3.60;;;3.40;;
2558;SDS011;1289;53.488;10.006;2023-01-04T02:49:27;5.53;;;4.43;;
2558;SDS011;1289;53.488;10.006;2023-01-04T02:52:11;3.50;;;3.20;;
2558;SDS011;1289;53.488;10.006;2023-01-04T02:54:38;5.17;;;3.53;;
2558;SDS011;1289;53.488;10.006;2023-01-04T02:57:13;4.77;;;3.90;;
2558;SDS011;1289;53.488;10.006;2023-01-04T02:59:49;4.70;;;3.70;;
2558;SDS011;1289;53.488;10.006;2023-01-04T03:02:28;4.70;;;4.00;;
2558;SDS011;1289;53.488;10.006;2023-01-04T03:05:24;7.20;;;4.20;;
2558;SDS011;1289;53.488;10.006;2023-01-04T03:08:14;12.10;;;5.10;;
2558;SDS011;1289;53.488;10.006;2023-01-04T03:10:49;5.60;;;3.50;;
2558;SDS011;1289;53.488;10.006;2023-01-04T03:13:18;6.77;;;3.30;;
2558;SDS011;1289;53.488;10.006;2023-01-04T03:15:48;7.50;;;3.60;;
2558;SDS011;1289;53.488;10.006;2023-01-04T03:18:20;3.77;;;3.47;;
2558;SDS011;1289;53.488;10.006;2023-01-04T03:20:49;4.63;;;3.67;;
2558;SDS011;1289;53.488;10.006;2023-01-04T03:23:18;7.73;;;3.67;;
2558;SDS011;1289;53.488;10.006;2023-01-04T03:26:06;3.47;;;3.17;;
2558;SDS011;1289;53.488;10.006;2023-01-04T03:28:51;10.03;;;4.20;;
2558;SDS011;1289;53.488;10.006;2023-01-04T03:31:37;5.50;;;4.07;;
2558;SDS011;1289;53.488;10.006;2023-01-04T03:34:24;4.83;;;3.70;;
2558;SDS011;1289;53.488;10.006;2023-01-04T03:37:10;4.13;;;3.73;;
2558;SDS011;1289;53.488;10.006;2023-01-04T03:39:46;4.13;;;3.80;;
2558;SDS011;1289;53.488;10.006;2023-01-04T03:42:39;4.30;;;3.60;;
2558;SDS011;1289;53.488;10.006;2023-01-04T03:45:29;4.03;;;3.63;;
2558;SDS011;1289;53.488;10.006;2023-01-04T03:48:15;7.73;;;3.73;;
2558;SDS011;1289;53.488;10.006;2023-01-04T03:50:55;3.80;;;3.47;;
2558;SDS011;1289;53.488;10.006;2023-01-04T03:53:26;3.30;;;3.10;;
2558;SDS011;1289;53.488;10.006;2023-01-04T03:55:52;3.90;;;3.60;;
2558;SDS011;1289;53.488;10.006;2023-01-04T03:58:19;3.97;;;3.73;;
2558;SDS011;1289;53.488;10.006;2023-01-04T04:00:46;4.70;;;3.87;;
2558;SDS011;1289;53.488;10.006;2023-01-04T04:03:13;5.23;;;3.50;;
2558;SDS011;1289;53.488;10.006;2023-01-04T04:05:40;4.37;;;4.07;;
2558;SDS011;1289;53.488;10.006;2023-01-04T04:08:26;4.47;;;4.07;;
2558;SDS011;1289;53.488;10.006;2023-01-04T04:10:54;6.23;;;4.20;;
2558;SDS011;1289;53.488;10.006;2023-01-04T04:13:21;6.20;;;3.77;;
2558;SDS011;1289;53.488;10.006;2023-01-04T04:15:51;4.00;;;3.70;;
2558;SDS011;1289;53.488;10.006;2023-01-04T04:18:18;3.93;;;3.60;;
2558;SDS011;1289;53.488;10.006;2023-01-04T04:20:44;4.67;;;4.20;;
2558;SDS011;1289;53.488;10.006;2023-01-04T04:23:11;8.23;;;6.77;;
2558;SDS011;1289;53.488;10.006;2023-01-04T04:25:39;5.50;;;3.90;;
2558;SDS011;1289;53.488;10.006;2023-01-04T04:28:06;6.20;;;4.07;;
2558;SDS011;1289;53.488;10.006;2023-01-04T04:30:32;7.03;;;6.50;;
2558;SDS011;1289;53.488;10.006;2023-01-04T04:32:59;5.43;;;3.73;;
2558;SDS011;1289;53.488;10.006;2023-01-04T04:35:26;5.33;;;4.10;;
2558;SDS011;1289;53.488;10.006;2023-01-04T04:37:52;5.80;;;4.83;;
2558;SDS011;1289;53.488;10.006;2023-01-04T04:40:19;6.13;;;3.77;;
2558;SDS011;1289;53.488;10.006;2023-01-04T04:43:06;4.90;;;4.40;;
2558;SDS011;1289;53.488;10.006;2023-01-04T04:45:33;5.73;;;4.40;;
2558;SDS011;1289;53.488;10.006;2023-01-04T04:47:59;5.67;;;4.00;;
2558;SDS011;1289;53.488;10.006;2023-01-04T04:50:26;4.27;;;3.80;;
2558;SDS011;1289;53.488;10.006;2023-01-04T04:52:52;4.60;;;4.07;;
2558;SDS011;1289;53.488;10.006;2023-01-04T04:55:19;5.13;;;3.97;;
2558;SDS011;1289;53.488;10.006;2023-01-04T04:57:46;6.30;;;4.03;;
2558;SDS011;1289;53.488;10.006;2023-01-04T05:00:14;4.37;;;4.07;;
2558;SDS011;1289;53.488;10.006;2023-01-04T05:02:41;5.00;;;4.30;;
2558;SDS011;1289;53.488;10.006;2023-01-04T05:05:08;7.53;;;4.10;;
2558;SDS011;1289;53.488;10.006;2023-01-04T05:07:34;6.00;;;4.67;;
2558;SDS011;1289;53.488;10.006;2023-01-04T05:10:01;4.20;;;3.90;;
2558;SDS011;1289;53.488;10.006;2023-01-04T05:12:28;4.10;;;3.80;;
2558;SDS011;1289;53.488;10.006;2023-01-04T05:15:12;4.60;;;4.20;;
2558;SDS011;1289;53.488;10.006;2023-01-04T05:17:40;4.53;;;4.20;;
2558;SDS011;1289;53.488;10.006;2023-01-04T05:20:07;4.50;;;3.97;;
2558;SDS011;1289;53.488;10.006;2023-01-04T05:22:34;6.30;;;4.30;;
2558;SDS011;1289;53.488;10.006;2023-01-04T05:25:00;4.23;;;3.93;;
2558;SDS011;1289;53.488;10.006;2023-01-04T05:27:27;4.90;;;4.40;;
2558;SDS011;1289;53.488;10.006;2023-01-04T05:29:53;5.33;;;4.50;;
2558;SDS011;1289;53.488;10.006;2023-01-04T05:32:39;5.87;;;4.30;;
2558;SDS011;1289;53.488;10.006;2023-01-04T05:35:06;4.93;;;4.20;;
2558;SDS011;1289;53.488;10.006;2023-01-04T05:37:33;5.13;;;4.60;;
2558;SDS011;1289;53.488;10.006;2023-01-04T05:39:59;4.60;;;4.20;;
2558;SDS011;1289;53.488;10.006;2023-01-04T05:42:26;5.60;;;4.37;;
2558;SDS011;1289;53.488;10.006;2023-01-04T05:44:53;4.30;;;3.90;;
2558;SDS011;1289;53.488;10.006;2023-01-04T05:47:20;4.33;;;3.87;;
2558;SDS011;1289;53.488;10.006;2023-01-04T05:49:49;4.27;;;3.87;;
2558;SDS011;1289;53.488;10.006;2023-01-04T05:52:16;4.40;;;4.00;;
2558;SDS011;1289;53.488;10.006;2023-01-04T05:54:43;3.77;;;3.37;;
2558;SDS011;1289;53.488;10.006;2023-01-04T05:57:10;4.13;;;3.70;;
2558;SDS011;1289;53.488;10.006;2023-01-04T05:59:36;3.90;;;3.50;;
2558;SDS011;1289;53.488;10.006;2023-01-04T06:02:04;3.83;;;3.53;;
2558;SDS011;1289;53.488;10.006;2023-01-04T06:04:31;4.83;;;3.70;;
2558;SDS011;1289;53.488;10.006;2023-01-04T06:06:59;3.97;;;3.70;;
2558;SDS011;1289;53.488;10.006;2023-01-04T06:09:25;4.40;;;3.60;;
2558;SDS011;1289;53.488;10.006;2023-01-04T06:11:52;3.47;;;3.20;;
2558;SDS011;1289;53.488;10.006;2023-01-04T06:14:19;3.80;;;3.50;;
2558;SDS011;1289;53.488;10.006;2023-01-04T06:16:46;3.70;;;3.40;;
2558;SDS011;1289;53.488;10.006;2023-01-04T06:19:12;3.20;;;3.00;;
2558;SDS011;1289;53.488;10.006;2023-01-04T06:21:39;3.40;;;3.07;;
2558;SDS011;1289;53.488;10.006;2023-01-04T06:24:08;3.63;;;3.43;;
2558;SDS011;1289;53.488;10.006;2023-01-04T06:26:35;4.10;;;3.30;;
2558;SDS011;1289;53.488;10.006;2023-01-04T06:29:02;3.63;;;3.33;;
2558;SDS011;1289;53.488;10.006;2023-01-04T06:31:29;3.67;;;3.37;;
2558;SDS011;1289;53.488;10.006;2023-01-04T06:33:57;3.53;;;3.23;;
2558;SDS011;1289;53.488;10.006;2023-01-04T06:36:24;4.40;;;3.40;;
2558;SDS011;1289;53.488;10.006;2023-01-04T06:38:51;4.30;;;3.90;;
2558;SDS011;1289;53.488;10.006;2023-01-04T06:41:19;3.57;;;3.30;;
2558;SDS011;1289;53.488;10.006;2023-01-04T06:43:45;4.30;;;3.90;;
2558;SDS011;1289;53.488;10.006;2023-01-04T06:46:12;4.13;;;3.73;;
2558;SDS011;1289;53.488;10.006;2023-01-04T06:48:38;3.77;;;3.47;;
2558;SDS011;1289;53.488;10.006;2023-01-04T06:51:05;3.73;;;3.33;;
2558;SDS011;1289;53.488;10.006;2023-01-04T06:53:32;3.37;;;3.17;;
2558;SDS011;1289;53.488;10.006;2023-01-04T06:55:58;3.67;;;3.30;;
2558;SDS011;1289;53.488;10.006;2023-01-04T06:58:26;3.87;;;3.53;;
2558;SDS011;1289;53.488;10.006;2023-01-04T07:00:53;4.00;;;3.70;;
2558;SDS011;1289;53.488;10.006;2023-01-04T07:03:21;3.40;;;3.20;;
2558;SDS011;1289;53.488;10.006;2023-01-04T07:05:48;3.50;;;3.30;;
2558;SDS011;1289;53.488;10.006;2023-01-04T07:08:14;3.50;;;3.30;;
2558;SDS011;1289;53.488;10.006;2023-01-04T07:10:41;3.73;;;3.43;;
2558;SDS011;1289;53.488;10.006;2023-01-04T07:13:07;3.83;;;3.53;;
2558;SDS011;1289;53.488;10.006;2023-01-04T07:15:36;3.83;;;3.53;;
2558;SDS011;1289;53.488;10.006;2023-01-04T07:18:03;3.63;;;3.43;;
2558;SDS011;1289;53.488;10.006;2023-01-04T07:20:29;4.00;;;3.57;;
2558;SDS011;1289;53.488;10.006;2023-01-04T07:22:56;3.90;;;3.60;;
2558;SDS011;1289;53.488;10.006;2023-01-04T07:25:23;4.17;;;3.87;;
2558;SDS011;1289;53.488;10.006;2023-01-04T07:27:49;3.77;;;3.47;;
2558;SDS011;1289;53.488;10.006;2023-01-04T07:30:17;3.73;;;3.43;;
2558;SDS011;1289;53.488;10.006;2023-01-04T07:32:45;3.97;;;3.77;;
2558;SDS011;1289;53.488;10.006;2023-01-04T07:35:12;3.77;;;3.47;;
2558;SDS011;1289;53.488;10.006;2023-01-04T07:37:38;3.83;;;3.40;;
2558;SDS011;1289;53.488;10.006;2023-01-04T07:40:05;4.17;;;3.87;;
2558;SDS011;1289;53.488;10.006;2023-01-04T07:42:33;3.87;;;3.67;;
2558;SDS011;1289;53.488;10.006;2023-01-04T07:44:59;3.80;;;3.50;;
2558;SDS011;1289;53.488;10.006;2023-01-04T07:47:26;4.87;;;4.13;;
2558;SDS011;1289;53.488;10.006;2023-01-04T07:49:54;4.40;;;4.10;;
2558;SDS011;1289;53.488;10.006;2023-01-04T07:52:21;4.70;;;4.20;;
2558;SDS011;1289;53.488;10.006;2023-01-04T07:54:47;4.30;;;3.90;;
2558;SDS011;1289;53.488;10.006;2023-01-04T07:57:14;5.27;;;4.87;;
2558;SDS011;1289;53.488;10.006;2023-01-04T07:59:40;4.93;;;4.53;;
2558;SDS011;1289;53.488;10.006;2023-01-04T08:02:08;5.10;;;4.60;;
2558;SDS011;1289;53.488;10.006;2023-01-04T08:04:35;5.40;;;4.20;;
2558;SDS011;1289;53.488;10.006;2023-01-04T08:07:03;4.30;;;4.00;;
2558;SDS011;1289;53.488;10.006;2023-01-04T08:09:30;4.77;;;4.37;;
2558;SDS011;1289;53.488;10.006;2023-01-04T08:11:57;5.00;;;4.60;;
2558;SDS011;1289;53.488;10.006;2023-01-04T08:14:23;4.63;;;4.30;;
2558;SDS011;1289;53.488;10.006;2023-01-04T08:16:50;4.87;;;4.47;;
2558;SDS011;1289;53.488;10.006;2023-01-04T08:19:18;5.37;;;4.97;;
2558;SDS011;1289;53.488;10.006;2023-01-04T08:21:46;4.70;;;4.30;;
2558;SDS011;1289;53.488;10.006;2023-01-04T08:24:15;5.10;;;4.70;;
2558;SDS011;1289;53.488;10.006;2023-01-04T08:26:42;5.47;;;5.03;;
2558;SDS011;1289;53.488;10.006;2023-01-04T08:29:09;4.90;;;4.50;;
2558;SDS011;1289;53.488;10.006;2023-01-04T08:31:36;5.60;;;5.20;;
2558;SDS011;1289;53.488;10.006;2023-01-04T08:34:04;5.10;;;4.70;;
2558;SDS011;1289;53.488;10.006;2023-01-04T08:36:32;4.83;;;4.53;;
2558;SDS011;1289;53.488;10.006;2023-01-04T08:39:00;4.50;;;4.10;;
2558;SDS011;1289;53.488;10.006;2023-01-04T08:41:33;5.53;;;4.20;;
2558;SDS011;1289;53.488;10.006;2023-01-04T08:44:14;4.80;;;4.40;;
2558;SDS011;1289;53.488;10.006;2023-01-04T08:46:41;4.17;;;3.87;;
2558;SDS011;1289;53.488;10.006;2023-01-04T08:49:08;5.00;;;4.63;;
2558;SDS011;1289;53.488;10.006;2023-01-04T08:51:34;4.27;;;3.77;;
2558;SDS011;1289;53.488;10.006;2023-01-04T08:54:01;4.20;;;3.90;;
2558;SDS011;1289;53.488;10.006;2023-01-04T08:56:28;4.70;;;3.87;;
2558;SDS011;1289;53.488;10.006;2023-01-04T08:58:56;4.07;;;3.77;;
2558;SDS011;1289;53.488;10.006;2023-01-04T09:01:22;4.60;;;4.20;;
2558;SDS011;1289;53.488;10.006;2023-01-04T09:03:49;4.10;;;3.80;;
2558;SDS011;1289;53.488;10.006;2023-01-04T09:06:15;4.20;;;3.90;;
2558;SDS011;1289;53.488;10.006;2023-01-04T09:08:42;4.17;;;3.87;;
2558;SDS011;1289;53.488;10.006;2023-01-04T09:11:10;5.73;;;4.23;;
2558;SDS011;1289;53.488;10.006;2023-01-04T09:13:38;4.60;;;4.30;;
2558;SDS011;1289;53.488;10.006;2023-01-04T09:16:07;4.77;;;4.43;;
2558;SDS011;1289;53.488;10.006;2023-01-04T09:18:34;4.90;;;4.50;;
2558;SDS011;1289;53.488;10.006;2023-01-04T09:21:04;4.20;;;3.90;;
2558;SDS011;1289;53.488;10.006;2023-01-04T09:23:31;3.73;;;3.53;;
2558;SDS011;1289;53.488;10.006;2023-01-04T09:25:58;3.93;;;3.70;;
2558;SDS011;1289;53.488;10.006;2023-01-04T09:28:25;4.50;;;4.20;;
2558;SDS011;1289;53.488;10.006;2023-01-04T09:30:52;4.20;;;3.90;;
2558;SDS011;1289;53.488;10.006;2023-01-04T09:33:20;4.43;;;4.13;;
2558;SDS011;1289;53.488;10.006;2023-01-04T09:35:46;3.93;;;3.63;;
2558;SDS011;1289;53.488;10.006;2023-01-04T09:38:13;4.27;;;3.97;;
2558;SDS011;1289;53.488;10.006;2023-01-04T09:40:43;4.70;;;4.30;;
2558;SDS011;1289;53.488;10.006;2023-01-04T09:43:17;4.70;;;4.30;;
2558;SDS011;1289;53.488;10.006;2023-01-04T09:45:44;4.40;;;4.10;;
2558;SDS011;1289;53.488;10.006;2023-01-04T09:48:13;4.70;;;4.30;;
2558;SDS011;1289;53.488;10.006;2023-01-04T09:50:43;4.80;;;4.50;;
2558;SDS011;1289;53.488;10.006;2023-01-04T09:53:15;4.80;;;4.50;;
2558;SDS011;1289;53.488;10.006;2023-01-04T09:55:44;4.50;;;4.20;;
2558;SDS011;1289;53.488;10.006;2023-01-04T09:58:19;4.10;;;3.80;;
2558;SDS011;1289;53.488;10.006;2023-01-04T10:00:50;4.30;;;4.00;;
2558;SDS011;1289;53.488;10.006;2023-01-04T10:03:21;4.20;;;3.90;;
2558;SDS011;1289;53.488;10.006;2023-01-04T10:05:51;4.00;;;3.70;;
2558;SDS011;1289;53.488;10.006;2023-01-04T10:08:20;4.37;;;4.07;;
2558;SDS011;1289;53.488;10.006;2023-01-04T10:10:47;4.50;;;4.20;;
2558;SDS011;1289;53.488;10.006;2023-01-04T10:13:21;4.03;;;3.73;;
2558;SDS011;1289;53.488;10.006;2023-01-04T10:16:07;3.80;;;3.50;;
2558;SDS011;1289;53.488;10.006;2023-01-04T10:18:41;4.03;;;3.80;;
2558;SDS011;1289;53.488;10.006;2023-01-04T10:21:16;3.97;;;3.57;;
2558;SDS011;1289;53.488;10.006;2023-01-04T10:23:56;4.37;;;3.97;;
2558;SDS011;1289;53.488;10.006;2023-01-04T10:26:29;3.47;;;3.27;;
2558;SDS011;1289;53.488;10.006;2023-01-04T10:29:06;3.70;;;3.40;;
2558;SDS011;1289;53.488;10.006;2023-01-04T10:31:50;3.40;;;3.20;;
2558;SDS011;1289;53.488;10.006;2023-01-04T10:34:21;3.43;;;3.23;;
2558;SDS011;1289;53.488;10.006;2023-01-04T10:36:54;3.53;;;3.33;;
2558;SDS011;1289;53.488;10.006;2023-01-04T10:39:23;4.30;;;3.43;;
2558;SDS011;1289;53.488;10.006;2023-01-04T10:41:52;4.03;;;3.73;;
2558;SDS011;1289;53.488;10.006;2023-01-04T10:44:22;3.70;;;3.50;;
2558;SDS011;1289;53.488;10.006;2023-01-04T10:46:52;4.20;;;3.70;;
2558;SDS011;1289;53.488;10.006;2023-01-04T10:49:25;4.00;;;3.70;;
2558;SDS011;1289;53.488;10.006;2023-01-04T10:51:56;4.13;;;3.83;;
2558;SDS011;1289;53.488;10.006;2023-01-04T10:54:25;4.30;;;3.90;;
2558;SDS011;1289;53.488;10.006;2023-01-04T10:56:56;4.27;;;3.97;;
2558;SDS011;1289;53.488;10.006;2023-01-04T10:59:27;4.10;;;3.80;;
2558;SDS011;1289;53.488;10.006;2023-01-04T11:01:59;4.20;;;3.90;;
2558;SDS011;1289;53.488;10.006;2023-01-04T11:04:32;4.17;;;3.87;;
2558;SDS011;1289;53.488;10.006;2023-01-04T11:07:04;3.97;;;3.70;;
2558;SDS011;1289;53.488;10.006;2023-01-04T11:09:32;3.87;;;3.60;;
2558;SDS011;1289;53.488;10.006;2023-01-04T11:12:00;4.30;;;4.00;;
2558;SDS011;1289;53.488;10.006;2023-01-04T11:14:27;3.90;;;3.60;;
2558;SDS011;1289;53.488;10.006;2023-01-04T11:16:55;3.60;;;3.40;;
2558;SDS011;1289;53.488;10.006;2023-01-04T11:19:23;3.63;;;3.43;;
2558;SDS011;1289;53.488;10.006;2023-01-04T11:21:51;3.60;;;3.40;;
2558;SDS011;1289;53.488;10.006;2023-01-04T11:24:22;3.73;;;3.47;;
2558;SDS011;1289;53.488;10.006;2023-01-04T11:26:49;3.30;;;3.10;;
2558;SDS011;1289;53.488;10.006;2023-01-04T11:29:22;3.30;;;3.10;;
2558;SDS011;1289;53.488;10.006;2023-01-04T11:31:53;3.43;;;3.23;;
2558;SDS011;1289;53.488;10.006;2023-01-04T11:37:21;3.90;;;3.57;;
2558;SDS011;1289;53.488;10.006;2023-01-04T11:39:51;3.33;;;3.13;;
2558;SDS011;1289;53.488;10.006;2023-01-04T11:42:44;3.20;;;3.00;;
2558;SDS011;1289;53.488;10.006;2023-01-04T11:45:15;3.07;;;2.87;;
2558;SDS011;1289;53.488;10.006;2023-01-04T11:47:47;3.10;;;2.90;;
2558;SDS011;1289;53.488;10.006;2023-01-04T11:55:50;3.20;;;3.00;;
2558;SDS011;1289;53.488;10.006;2023-01-04T11:58:18;3.20;;;2.90;;
2558;SDS011;1289;53.488;10.006;2023-01-04T12:00:51;3.00;;;2.80;;
2558;SDS011;1289;53.488;10.006;2023-01-04T12:03:21;3.00;;;2.70;;
2558;SDS011;1289;53.488;10.006;2023-01-04T12:05:50;2.97;;;2.77;;
2558;SDS011;1289;53.488;10.006;2023-01-04T12:08:21;4.70;;;2.77;;
2558;SDS011;1289;53.488;10.006;2023-01-04T12:10:55;2.90;;;2.70;;
2558;SDS011;1289;53.488;10.006;2023-01-04T12:13:22;3.10;;;2.30;;
2558;SDS011;1289;53.488;10.006;2023-01-04T12:15:54;2.57;;;2.37;;
2558;SDS011;1289;53.488;10.006;2023-01-04T12:18:24;2.23;;;2.13;;
2558;SDS011;1289;53.488;10.006;2023-01-04T12:20:52;2.70;;;2.50;;
2558;SDS011;1289;53.488;10.006;2023-01-04T12:23:20;2.33;;;2.20;;
2558;SDS011;1289;53.488;10.006;2023-01-04T12:25:48;2.77;;;2.57;;
2558;SDS011;1289;53.488;10.006;2023-01-04T12:28:32;2.20;;;2.00;;
2558;SDS011;1289;53.488;10.006;2023-01-04T12:33:54;2.37;;;2.27;;
2558;SDS011;1289;53.488;10.006;2023-01-04T12:36:52;2.37;;;2.27;;
2558;SDS011;1289;53.488;10.006;2023-01-04T12:39:27;4.50;;;2.47;;
2558;SDS011;1289;53.488;10.006;2023-01-04T12:42:13;2.30;;;2.10;;
2558;SDS011;1289;53.488;10.006;2023-01-04T12:47:47;2.30;;;2.10;;
2558;SDS011;1289;53.488;10.006;2023-01-04T12:50:38;2.13;;;2.03;;
2558;SDS011;1289;53.488;10.006;2023-01-04T12:53:53;2.43;;;2.23;;
2558;SDS011;1289;53.488;10.006;2023-01-04T12:59:31;2.50;;;2.30;;
2558;SDS011;1289;53.488;10.006;2023-01-04T13:02:16;2.67;;;2.47;;
2558;SDS011;1289;53.488;10.006;2023-01-04T13:04:46;2.50;;;2.30;;
2558;SDS011;1289;53.488;10.006;2023-01-04T13:07:14;2.77;;;2.57;;
2558;SDS011;1289;53.488;10.006;2023-01-04T13:09:47;3.07;;;2.50;;
2558;SDS011;1289;53.488;10.006;2023-01-04T13:12:24;2.53;;;2.33;;
2558;SDS011;1289;53.488;10.006;2023-01-04T13:15:12;2.37;;;2.20;;
2558;SDS011;1289;53.488;10.006;2023-01-04T13:17:43;2.20;;;2.10;;
2558;SDS011;1289;53.488;10.006;2023-01-04T13:20:16;3.07;;;2.23;;
2558;SDS011;1289;53.488;10.006;2023-01-04T13:22:48;2.40;;;2.20;;
2558;SDS011;1289;53.488;10.006;2023-01-04T13:25:16;3.27;;;3.03;;
2558;SDS011;1289;53.488;10.006;2023-01-04T13:27:53;2.90;;;2.70;;
2558;SDS011;1289;53.488;10.006;2023-01-04T13:30:33;2.80;;;2.60;;
2558;SDS011;1289;53.488;10.006;2023-01-04T13:33:06;3.00;;;2.80;;
2558;SDS011;1289;53.488;10.006;2023-01-04T13:35:36;2.77;;;2.57;;
2558;SDS011;1289;53.488;10.006;2023-01-04T13:38:02;4.03;;;3.70;;
2558;SDS011;1289;53.488;10.006;2023-01-04T13:40:40;3.07;;;2.83;;
2558;SDS011;1289;53.488;10.006;2023-01-04T13:43:12;2.70;;;2.50;;
2558;SDS011;1289;53.488;10.006;2023-01-04T13:45:53;3.03;;;2.83;;
2558;SDS011;1289;53.488;10.006;2023-01-04T13:48:25;2.77;;;2.57;;
2558;SDS011;1289;53.488;10.006;2023-01-04T13:50:58;2.80;;;2.60;;
2558;SDS011;1289;53.488;10.006;2023-01-04T13:53:27;3.13;;;2.93;;
2558;SDS011;1289;53.488;10.006;2023-01-04T13:55:55;3.40;;;2.90;;
2558;SDS011;1289;53.488;10.006;2023-01-04T13:58:35;3.00;;;2.80;;
2558;SDS011;1289;53.488;10.006;2023-01-04T14:01:02;3.20;;;3.00;;
2558;SDS011;1289;53.488;10.006;2023-01-04T14:03:33;3.30;;;3.10;;
2558;SDS011;1289;53.488;10.006;2023-01-04T14:06:11;4.07;;;3.67;;
2558;SDS011;1289;53.488;10.006;2023-01-04T14:08:44;3.53;;;3.33;;
2558;SDS011;1289;53.488;10.006;2023-01-04T14:11:14;4.03;;;3.73;;
2558;SDS011;1289;53.488;10.006;2023-01-04T14:14:04;4.10;;;3.43;;
2558;SDS011;1289;53.488;10.006;2023-01-04T14:16:44;4.03;;;3.73;;
2558;SDS011;1289;53.488;10.006;2023-01-04T14:22:27;5.03;;;3.33;;
2558;SDS011;1289;53.488;10.006;2023-01-04T14:25:00;3.70;;;3.47;;
2558;SDS011;1289;53.488;10.006;2023-01-04T14:27:31;3.50;;;3.20;;
2558;SDS011;1289;53.488;10.006;2023-01-04T14:29:58;3.33;;;3.13;;
2558;SDS011;1289;53.488;10.006;2023-01-04T14:32:25;3.50;;;3.30;;
2558;SDS011;1289;53.488;10.006;2023-01-04T14:34:52;3.57;;;3.27;;
2558;SDS011;1289;53.488;10.006;2023-01-04T14:37:19;4.40;;;3.63;;
2558;SDS011;1289;53.488;10.006;2023-01-04T14:39:48;4.10;;;3.30;;
2558;SDS011;1289;53.488;10.006;2023-01-04T14:42:23;3.80;;;3.50;;
2558;SDS011;1289;53.488;10.006;2023-01-04T14:44:51;3.50;;;3.30;;
2558;SDS011;1289;53.488;10.006;2023-01-04T14:47:17;3.37;;;3.00;;
2558;SDS011;1289;53.488;10.006;2023-01-04T14:49:44;4.33;;;3.50;;
2558;SDS011;1289;53.488;10.006;2023-01-04T14:52:15;3.80;;;2.83;;
2558;SDS011;1289;53.488;10.006;2023-01-04T14:54:45;3.13;;;2.83;;
2558;SDS011;1289;53.488;10.006;2023-01-04T14:57:13;2.80;;;2.60;;
2558;SDS011;1289;53.488;10.006;2023-01-04T14:59:40;3.30;;;2.57;;
2558;SDS011;1289;53.488;10.006;2023-01-04T15:02:08;5.20;;;3.23;;
2558;SDS011;1289;53.488;10.006;2023-01-04T15:04:35;3.30;;;2.83;;
2558;SDS011;1289;53.488;10.006;2023-01-04T15:07:02;5.37;;;2.87;;
2558;SDS011;1289;53.488;10.006;2023-01-04T15:09:29;5.60;;;2.43;;
2558;SDS011;1289;53.488;10.006;2023-01-04T15:11:56;4.83;;;3.30;;
2558;SDS011;1289;53.488;10.006;2023-01-04T15:14:24;4.80;;;2.87;;
2558;SDS011;1289;53.488;10.006;2023-01-04T15:16:51;3.97;;;2.83;;
2558;SDS011;1289;53.488;10.006;2023-01-04T15:19:17;4.73;;;2.87;;
2558;SDS011;1289;53.488;10.006;2023-01-04T15:21:44;3.93;;;3.00;;
2558;SDS011;1289;53.488;10.006;2023-01-04T15:24:10;3.97;;;3.00;;
2558;SDS011;1289;53.488;10.006;2023-01-04T15:26:37;4.93;;;3.50;;
2558;SDS011;1289;53.488;10.006;2023-01-04T15:29:04;3.57;;;3.10;;
2558;SDS011;1289;53.488;10.006;2023-01-04T15:31:33;3.80;;;3.17;;
2558;SDS011;1289;53.488;10.006;2023-01-04T15:34:01;5.10;;;3.27;;
2558;SDS011;1289;53.488;10.006;2023-01-04T15:36:28;5.23;;;3.30;;
2558;SDS011;1289;53.488;10.006;2023-01-04T15:38:55;5.27;;;3.47;;
2558;SDS011;1289;53.488;10.006;2023-01-04T15:41:21;4.50;;;3.33;;
2558;SDS011;1289;53.488;10.006;2023-01-04T15:44:02;6.27;;;3.67;;